createdAt,value
2022-08-11T00:02:41.766Z,1.48
2022-08-11T00:08:05.258Z,1.15
2022-08-11T00:13:17.594Z,2.00
2022-08-11T00:18:20.797Z,2.45
2022-08-11T00:23:25.596Z,2.22
2022-08-11T00:28:48.779Z,2.53
2022-08-11T00:34:12.956Z,2.92
2022-08-11T00:39:27.311Z,2.13
2022-08-11T00:45:03.444Z,1.98
2022-08-11T00:50:35.396Z,2.08
2022-08-11T00:56:30.005Z,1.83
2022-08-11T01:01:57.349Z,1.60
2022-08-11T01:08:02.433Z,2.55
2022-08-11T01:13:15.158Z,1.98
2022-08-11T01:19:03.356Z,2.05
2022-08-11T01:24:29.540Z,2.38
2022-08-11T01:30:07.419Z,2.20
2022-08-11T01:35:37.552Z,2.70
2022-08-11T01:41:19.756Z,3.00
2022-08-11T01:46:30.404Z,2.67
2022-08-11T01:51:50.104Z,2.70
2022-08-11T01:57:17.605Z,2.28
2022-08-11T02:02:25.988Z,2.35
2022-08-11T02:07:54.097Z,2.55
2022-08-11T02:13:05.187Z,2.60
2022-08-11T02:18:34.584Z,2.35
2022-08-11T02:24:04.578Z,2.70
2022-08-11T02:29:53.935Z,3.63
2022-08-11T02:35:23.003Z,2.17
2022-08-11T02:40:57.447Z,2.20
2022-08-11T02:46:38.397Z,2.58
2022-08-11T02:52:14.696Z,2.63
2022-08-11T02:57:48.277Z,2.60
2022-08-11T03:03:11.744Z,2.80
2022-08-11T03:08:32.624Z,2.53
2022-08-11T03:13:49.825Z,2.55
2022-08-11T03:19:47.116Z,2.40
2022-08-11T03:24:55.166Z,2.10
2022-08-11T03:30:31.465Z,2.42
2022-08-11T03:35:42.864Z,2.47
2022-08-11T03:40:59.872Z,2.90
2022-08-11T03:46:19.765Z,2.55
2022-08-11T03:51:52.056Z,2.60
2022-08-11T03:57:17.404Z,3.53
2022-08-11T04:03:14.446Z,2.38
2022-08-11T04:09:06.825Z,3.30
2022-08-11T04:14:37.733Z,2.78
2022-08-11T04:20:10.031Z,3.20
2022-08-11T04:25:57.768Z,3.20
2022-08-11T04:31:03.738Z,3.78
2022-08-11T04:36:58.491Z,3.22
2022-08-11T04:42:55.534Z,3.03
2022-08-11T04:48:04.929Z,2.88
2022-08-11T04:53:34.586Z,2.47
2022-08-11T04:59:21.345Z,2.97
2022-08-11T05:04:29.145Z,2.05
2022-08-11T05:10:01.107Z,2.40
2022-08-11T05:15:42.467Z,2.13
2022-08-11T05:20:55.727Z,2.47
2022-08-11T05:26:47.853Z,2.53
2022-08-11T05:31:41.294Z,2.38
2022-08-11T05:37:25.598Z,1.73
2022-08-11T05:42:59.560Z,2.00
2022-08-11T05:48:04.964Z,3.28
2022-08-11T05:53:11.979Z,2.95
2022-08-11T05:58:20.932Z,3.10
2022-08-11T06:04:15.966Z,3.10
2022-08-11T06:15:27.860Z,3.30
2022-08-11T06:20:32.350Z,2.88
2022-08-11T06:25:36.165Z,2.75
2022-08-11T06:30:41.966Z,2.05
2022-08-11T06:36:02.721Z,2.38
2022-08-11T06:41:18.805Z,2.40
2022-08-11T06:46:31.987Z,1.30
2022-08-11T06:51:36.287Z,4.28
2022-08-11T06:56:40.333Z,1.73
2022-08-11T07:02:17.918Z,1.85
2022-08-11T07:08:33.614Z,1.92
2022-08-11T07:13:45.655Z,1.70
2022-08-11T07:19:09.706Z,1.30
2022-08-11T07:24:34.325Z,2.30
2022-08-11T07:29:53.206Z,1.50
2022-08-11T07:35:09.005Z,1.48
2022-08-11T07:40:12.317Z,1.42
2022-08-11T07:45:24.496Z,1.20
2022-08-11T07:50:31.069Z,1.60
2022-08-11T07:55:51.080Z,1.20
2022-08-11T08:00:59.165Z,1.20
2022-08-11T08:06:35.726Z,1.10
2022-08-11T08:11:52.229Z,1.10
2022-08-11T08:17:13.026Z,1.08
2022-08-11T08:22:38.148Z,1.73
2022-08-11T08:28:04.186Z,0.93
2022-08-11T08:33:27.639Z,1.17
2022-08-11T08:38:52.827Z,0.90
2022-08-11T08:54:54.907Z,2.33
2022-08-11T09:05:24.966Z,2.10
2022-08-11T09:10:28.778Z,1.90
2022-08-11T09:15:35.024Z,1.40
2022-08-11T09:20:39.193Z,1.73
2022-08-11T09:25:42.287Z,2.33
2022-08-11T09:30:52.848Z,1.55
2022-08-11T09:36:20.721Z,1.63
2022-08-11T09:41:25.546Z,1.33
2022-08-11T09:46:47.157Z,1.33
2022-08-11T09:51:50.572Z,1.27
2022-08-11T09:57:08.165Z,1.90
2022-08-11T10:02:11.153Z,1.30
2022-08-11T10:07:32.086Z,1.48
2022-08-11T10:12:37.566Z,1.55
2022-08-11T10:18:08.087Z,1.17
2022-08-11T10:23:12.748Z,2.03
2022-08-11T10:28:28.169Z,1.30
2022-08-11T10:33:41.755Z,1.48
2022-08-11T10:38:51.933Z,1.30
2022-08-11T10:44:02.171Z,1.58
2022-08-11T10:49:09.459Z,1.50
2022-08-11T10:54:32.313Z,1.40
2022-08-11T10:59:35.479Z,1.65
2022-08-11T11:04:54.026Z,1.50
2022-08-11T11:10:02.005Z,1.30
2022-08-11T11:15:06.703Z,1.35
2022-08-11T11:20:37.463Z,1.20
2022-08-11T11:25:57.306Z,1.30
2022-08-11T11:31:11.618Z,1.40
2022-08-11T11:36:33.415Z,1.50
2022-08-11T11:41:36.204Z,1.60
2022-08-11T11:46:39.274Z,1.60
2022-08-11T11:51:43.696Z,1.25
2022-08-11T11:57:06.709Z,1.73
2022-08-11T12:02:27.447Z,1.25
2022-08-11T12:07:32.145Z,1.00
2022-08-11T12:12:53.746Z,1.52
2022-08-11T12:18:17.545Z,1.23
2022-08-11T12:23:27.144Z,1.88
2022-08-11T12:28:30.263Z,1.95
2022-08-11T12:33:56.494Z,1.27
2022-08-11T12:39:00.084Z,1.50
2022-08-11T12:44:11.294Z,2.25
2022-08-11T12:49:19.111Z,1.70
2022-08-11T12:54:59.602Z,1.55
2022-08-11T13:00:21.552Z,1.35
2022-08-11T13:05:23.966Z,1.27
2022-08-11T13:10:26.847Z,1.73
2022-08-11T13:15:29.485Z,1.98
2022-08-11T13:20:58.639Z,1.77
2022-08-11T13:26:25.760Z,1.65
2022-08-11T13:31:47.466Z,1.95
2022-08-11T13:36:52.705Z,1.92
2022-08-11T13:41:57.372Z,1.50
2022-08-11T13:47:19.678Z,1.38
2022-08-11T13:52:23.680Z,2.17
2022-08-11T13:58:08.234Z,1.50
2022-08-11T14:02:57.930Z,1.67
2022-08-11T14:08:03.486Z,1.67
2022-08-11T14:13:16.468Z,2.57
2022-08-11T14:18:23.279Z,1.60
2022-08-11T14:23:35.735Z,1.73
2022-08-11T14:28:48.222Z,2.47
2022-08-11T14:33:59.256Z,2.20
2022-08-11T14:39:25.097Z,2.20
2022-08-11T14:44:31.764Z,2.28
2022-08-11T14:50:09.652Z,2.90
2022-08-11T14:55:15.186Z,2.50
2022-08-11T15:00:21.245Z,1.90
2022-08-11T15:05:25.947Z,2.30
2022-08-11T15:10:29.687Z,2.70
2022-08-11T15:15:33.586Z,2.60
2022-08-11T15:20:54.165Z,2.05
2022-08-11T15:26:23.325Z,1.77
2022-08-11T15:31:30.445Z,2.20
2022-08-11T15:36:57.606Z,2.30
2022-08-11T15:42:09.408Z,1.70
2022-08-11T15:47:13.004Z,1.92
2022-08-11T15:52:23.619Z,2.13
2022-08-11T15:57:50.464Z,2.05
2022-08-11T16:03:15.696Z,1.67
2022-08-11T16:08:39.345Z,1.75
2022-08-11T16:13:44.113Z,1.75
2022-08-11T16:18:52.079Z,2.08
2022-08-11T16:23:57.485Z,2.15
2022-08-11T16:29:01.494Z,2.05
2022-08-11T16:34:10.245Z,2.85
2022-08-11T16:39:13.908Z,1.73
2022-08-11T16:44:19.013Z,1.73
2022-08-11T16:49:52.214Z,1.50
2022-08-11T16:54:56.045Z,1.73
2022-08-11T17:00:10.123Z,2.10
2022-08-11T17:05:35.027Z,2.45
2022-08-11T17:10:52.597Z,1.67
2022-08-11T17:16:22.965Z,1.77
2022-08-11T17:21:26.576Z,2.22
2022-08-11T17:26:45.825Z,2.08
2022-08-11T17:31:50.045Z,1.50
2022-08-11T17:36:56.473Z,1.60
2022-08-11T17:42:02.407Z,2.05
2022-08-11T17:47:06.323Z,1.77
2022-08-11T17:52:11.097Z,1.70
2022-08-11T17:57:20.457Z,1.92
2022-08-11T18:02:34.949Z,1.85
2022-08-11T18:07:45.605Z,1.92
2022-08-11T18:12:48.841Z,2.15
2022-08-11T18:17:51.248Z,1.92
2022-08-11T18:22:56.186Z,1.83
2022-08-11T18:28:00.117Z,2.20
2022-08-11T18:33:50.507Z,2.35
2022-08-11T18:43:58.385Z,1.80
2022-08-11T18:49:15.673Z,2.25
2022-08-11T18:54:25.546Z,1.95
2022-08-11T18:59:35.624Z,2.13
2022-08-11T19:04:40.580Z,2.00
2022-08-11T19:09:48.687Z,1.88
2022-08-11T19:14:53.462Z,1.75
2022-08-11T19:19:58.887Z,2.20
2022-08-11T19:25:25.367Z,2.33
2022-08-11T19:30:32.589Z,2.55
2022-08-11T19:35:35.206Z,2.28
2022-08-11T19:40:39.706Z,2.53
2022-08-11T19:45:43.654Z,2.03
2022-08-11T19:51:13.245Z,2.58
2022-08-11T19:56:16.786Z,2.13
2022-08-11T20:01:19.102Z,1.85
2022-08-11T20:06:40.707Z,2.40
2022-08-11T20:11:47.896Z,2.25
2022-08-11T20:16:52.706Z,2.05
2022-08-11T20:22:17.726Z,3.03
2022-08-11T20:27:24.453Z,1.92
2022-08-11T20:32:28.226Z,3.08
2022-08-11T20:37:32.676Z,2.63
2022-08-11T20:42:37.054Z,2.30
2022-08-11T20:47:56.783Z,2.28
2022-08-11T20:53:05.654Z,2.38
2022-08-11T20:58:15.215Z,2.80
2022-08-11T21:03:35.337Z,2.65
2022-08-11T21:08:43.188Z,3.00
2022-08-11T21:13:51.286Z,2.40
2022-08-11T21:19:00.669Z,2.63
2022-08-11T21:24:27.646Z,2.63
2022-08-11T21:29:52.674Z,2.28
2022-08-11T21:34:57.516Z,2.70
2022-08-11T21:40:02.462Z,2.70
2022-08-11T21:45:08.986Z,2.53
2022-08-11T21:50:12.005Z,2.45
2022-08-11T21:55:14.874Z,2.78
2022-08-11T22:00:16.990Z,2.85
2022-08-11T22:05:38.785Z,2.50
2022-08-11T22:10:42.976Z,2.50
2022-08-11T22:15:45.732Z,2.53
2022-08-11T22:21:08.406Z,3.00
2022-08-11T22:26:12.646Z,3.17
2022-08-11T22:31:35.606Z,3.08
2022-08-11T22:36:56.905Z,2.55
2022-08-11T22:42:20.194Z,2.28
2022-08-11T22:47:41.889Z,2.40
2022-08-11T22:52:46.893Z,2.30
2022-08-11T22:58:08.105Z,2.53
2022-08-11T23:03:37.100Z,3.08
2022-08-11T23:08:41.546Z,2.47
2022-08-11T23:14:02.587Z,3.28
2022-08-11T23:19:05.706Z,3.28
2022-08-11T23:24:08.589Z,3.05
2022-08-11T23:29:11.846Z,2.47
2022-08-11T23:35:02.725Z,2.10
2022-08-11T23:39:43.860Z,2.22
2022-08-11T23:44:46.025Z,2.10
2022-08-11T23:49:48.884Z,1.92
2022-08-11T23:54:51.587Z,1.88
2022-08-11T23:59:53.785Z,2.20
